createdAt,value
2023-05-13T00:02:22.828Z,12.20
2023-05-13T00:05:25.650Z,12.10
2023-05-13T00:08:28.411Z,12.10
2023-05-13T00:11:32.553Z,12.10
2023-05-13T00:14:35.443Z,12.10
2023-05-13T00:17:38.241Z,12.00
2023-05-13T00:20:41.070Z,12.10
2023-05-13T00:23:43.845Z,12.00
2023-05-13T00:26:47.990Z,12.00
2023-05-13T00:29:50.794Z,12.10
2023-05-13T00:32:53.616Z,12.10
2023-05-13T00:35:56.445Z,12.00
2023-05-13T00:38:59.348Z,12.10
2023-05-13T00:42:04.473Z,12.00
2023-05-13T00:45:08.237Z,12.00
2023-05-13T00:48:11.402Z,12.00
2023-05-13T00:51:14.456Z,12.00
2023-05-13T00:54:17.213Z,12.00
2023-05-13T00:57:21.953Z,12.00
2023-05-13T01:00:24.837Z,12.00
2023-05-13T01:03:44.126Z,12.00
2023-05-13T01:06:53.457Z,11.90
2023-05-13T01:10:03.608Z,11.90
2023-05-13T01:13:11.093Z,11.90
2023-05-13T01:16:19.487Z,11.90
2023-05-13T01:19:35.594Z,11.90
2023-05-13T01:22:39.731Z,11.90
2023-05-13T01:25:42.624Z,11.80
2023-05-13T01:28:45.471Z,11.90
2023-05-13T01:31:49.939Z,11.80
2023-05-13T01:34:54.085Z,11.80
2023-05-13T01:37:58.903Z,11.80
2023-05-13T01:41:01.905Z,11.80
2023-05-13T01:44:04.895Z,11.80
2023-05-13T01:47:07.756Z,11.80
2023-05-13T01:50:11.332Z,11.80
2023-05-13T01:53:15.854Z,11.80
2023-05-13T01:56:18.671Z,11.80
2023-05-13T01:59:21.454Z,11.80
2023-05-13T02:02:24.251Z,11.80
2023-05-13T02:05:27.070Z,11.80
2023-05-13T02:08:31.416Z,11.90
2023-05-13T02:11:35.626Z,11.80
2023-05-13T02:14:39.566Z,11.80
2023-05-13T02:17:42.402Z,11.80
2023-05-13T02:20:45.620Z,11.80
2023-05-13T02:23:50.000Z,11.90
2023-05-13T02:26:52.980Z,11.90
2023-05-13T02:29:55.785Z,11.90
2023-05-13T02:32:58.932Z,11.90
2023-05-13T02:36:01.780Z,11.90
2023-05-13T02:39:05.917Z,11.90
2023-05-13T02:42:08.814Z,11.80
2023-05-13T02:45:12.577Z,11.90
2023-05-13T02:48:16.009Z,11.80
2023-05-13T02:51:18.786Z,11.80
2023-05-13T02:54:22.888Z,11.80
2023-05-13T02:57:25.661Z,11.80
2023-05-13T03:00:28.705Z,11.80
2023-05-13T03:03:31.603Z,11.80
2023-05-13T03:06:34.532Z,11.80
2023-05-13T03:09:42.112Z,11.80
2023-05-13T03:12:44.921Z,11.80
2023-05-13T03:15:47.734Z,11.70
2023-05-13T03:18:50.563Z,11.80
2023-05-13T03:21:53.938Z,11.70
2023-05-13T03:24:58.327Z,11.70
2023-05-13T03:28:01.224Z,11.70
2023-05-13T03:31:04.257Z,11.70
2023-05-13T03:34:07.090Z,11.70
2023-05-13T03:37:09.885Z,11.70
2023-05-13T03:40:14.330Z,11.70
2023-05-13T03:43:17.143Z,11.70
2023-05-13T03:46:19.961Z,11.70
2023-05-13T03:49:22.764Z,11.70
2023-05-13T03:52:25.547Z,11.70
2023-05-13T03:55:32.363Z,11.70
2023-05-13T03:58:35.240Z,11.70
2023-05-13T04:01:38.016Z,11.70
2023-05-13T04:04:40.761Z,11.60
2023-05-13T04:07:43.568Z,11.60
2023-05-13T04:53:42.070Z,11.50
2023-05-13T04:56:46.371Z,11.50
2023-05-13T04:59:49.193Z,11.50
2023-05-13T05:02:52.070Z,11.50
2023-05-13T05:05:54.891Z,11.50
2023-05-13T05:08:57.654Z,11.50
2023-05-13T05:12:01.817Z,11.50
2023-05-13T05:15:04.886Z,11.50
2023-05-13T05:18:07.945Z,11.50
2023-05-13T05:21:11.309Z,11.50
2023-05-13T05:24:14.142Z,11.50
2023-05-13T05:27:19.293Z,11.50
2023-05-13T05:30:22.557Z,11.50
2023-05-13T05:33:25.590Z,11.60
2023-05-13T05:36:28.366Z,11.60
2023-05-13T05:39:31.155Z,11.60
2023-05-13T05:42:35.611Z,11.60
2023-05-13T05:48:41.941Z,11.60
2023-05-13T05:51:45.026Z,11.60
2023-05-13T05:54:47.757Z,11.60
2023-05-13T05:57:52.316Z,11.60
2023-05-13T06:00:55.562Z,11.50
2023-05-13T06:03:58.493Z,11.50
2023-05-13T06:07:01.437Z,11.60
2023-05-13T06:10:06.365Z,11.50
2023-05-13T06:13:11.777Z,11.50
2023-05-13T06:16:14.674Z,11.60
2023-05-13T06:19:17.479Z,11.60
2023-05-13T06:22:20.279Z,11.50
2023-05-13T06:25:23.022Z,11.60
2023-05-13T06:28:27.119Z,11.60
2023-05-13T06:31:29.889Z,11.60
2023-05-13T06:34:32.803Z,11.70
2023-05-13T06:37:35.572Z,11.80
2023-05-13T06:40:38.497Z,11.80
2023-05-13T10:28:10.738Z,12.90
2023-05-13T10:31:13.588Z,12.90
2023-05-13T10:34:18.215Z,13.00
2023-05-13T10:37:46.752Z,13.00
2023-05-13T10:41:09.861Z,13.00
2023-05-13T10:44:12.771Z,13.00
2023-05-13T10:47:18.287Z,13.00
2023-05-13T10:50:26.616Z,13.00
2023-05-13T10:53:31.115Z,13.10
2023-05-13T10:56:34.143Z,13.20
2023-05-13T10:59:38.759Z,13.40
2023-05-13T11:02:41.718Z,13.50
2023-05-13T11:06:00.653Z,13.50
2023-05-13T11:09:06.753Z,13.50
2023-05-13T11:12:16.551Z,13.50
2023-05-13T11:15:23.805Z,13.50
2023-05-13T11:18:31.415Z,13.50
2023-05-13T11:21:39.501Z,13.50
2023-05-13T11:24:45.527Z,13.40
2023-05-13T11:27:48.302Z,13.40
2023-05-13T11:31:16.023Z,13.40
2023-05-13T11:34:19.606Z,13.40
2023-05-13T11:37:24.086Z,13.30
2023-05-13T11:40:28.341Z,13.30
2023-05-13T11:43:33.488Z,13.30
2023-05-13T11:46:37.578Z,13.30
2023-05-13T11:49:42.039Z,13.30
2023-05-13T11:52:46.353Z,13.40
2023-05-13T11:55:49.869Z,13.50
2023-05-13T11:58:53.287Z,13.50
2023-05-13T20:52:11.242Z,13.80
2023-05-13T20:55:15.431Z,13.80
2023-05-13T20:58:18.251Z,13.80
2023-05-13T21:01:21.110Z,13.80
2023-05-13T21:04:26.369Z,13.80
2023-05-13T21:07:29.150Z,13.80
2023-05-13T21:10:31.939Z,13.70
2023-05-13T21:13:34.874Z,13.70
2023-05-13T21:16:37.691Z,13.70
2023-05-13T21:19:41.811Z,13.60
2023-05-13T21:22:44.594Z,13.60
2023-05-13T21:25:47.381Z,13.70
2023-05-13T21:28:50.642Z,13.70
2023-05-13T21:31:54.466Z,13.70
2023-05-13T21:34:58.567Z,13.70
2023-05-13T21:38:11.389Z,13.70
2023-05-13T21:41:15.283Z,13.70
2023-05-13T21:44:18.045Z,13.50
2023-05-13T21:47:21.013Z,13.60
2023-05-13T21:50:25.200Z,13.60
2023-05-13T21:53:28.098Z,13.60
2023-05-13T21:56:30.881Z,13.60
2023-05-13T21:59:33.665Z,13.60
2023-05-13T22:02:36.541Z,13.60
2023-05-13T22:05:43.978Z,13.60
2023-05-13T22:08:46.992Z,13.60
2023-05-13T22:11:49.766Z,13.60
2023-05-13T22:14:53.553Z,13.60
2023-05-13T22:17:56.444Z,13.60
2023-05-13T22:21:00.809Z,13.60
2023-05-13T22:24:04.949Z,13.60
2023-05-13T22:27:08.206Z,13.60
2023-05-13T22:30:11.444Z,13.60
2023-05-13T22:33:14.258Z,13.60
2023-05-13T22:36:18.387Z,13.60
2023-05-13T22:39:21.379Z,13.60
2023-05-13T22:42:24.161Z,13.60
2023-05-13T22:45:27.235Z,13.50
2023-05-13T22:48:30.089Z,13.50
2023-05-13T22:51:35.087Z,13.60
2023-05-13T22:54:37.857Z,13.50
2023-05-13T22:57:40.883Z,13.50
2023-05-13T23:00:43.687Z,13.50
2023-05-13T23:03:46.633Z,13.50
2023-05-13T23:06:50.790Z,13.60
2023-05-13T23:09:53.601Z,13.60
2023-05-13T23:12:56.408Z,13.50
2023-05-13T23:15:59.186Z,13.50
2023-05-13T23:19:02.282Z,13.50
2023-05-13T23:22:06.528Z,13.50
2023-05-13T23:25:10.254Z,13.50
2023-05-13T23:28:13.475Z,13.40
2023-05-13T23:31:16.426Z,13.40
2023-05-13T23:34:19.199Z,13.40
2023-05-13T23:37:23.319Z,13.30
2023-05-13T23:40:26.558Z,13.40
2023-05-13T23:43:29.350Z,13.30
2023-05-13T23:46:32.238Z,13.30
2023-05-13T23:49:35.079Z,13.20
2023-05-13T23:52:39.202Z,13.20
2023-05-13T23:55:41.970Z,13.20
2023-05-13T23:58:44.893Z,13.20
